Time;durP1;ratioP1;P1;durP2;ratioP2;P2;SDS_P1;SDS_P2;PMS_P1;PMS_P2;Temp;Humidity;BMP_temperature;BMP_pressure;BME280_temperature;BME280_humidity;BME280_pressure;Samples;Min_cycle;Max_cycle;Signal;HPM_P1;HPM_P2
2023/01/12 00:01:55;;;;;;;12.43;2.92;;;8.40;99.90;;;;;;5019197;28;20336;-88
2023/01/12 00:04:21;;;;;;;14.85;3.13;;;8.50;99.90;;;;;;5023173;28;20041;-88
2023/01/12 00:06:46;;;;;;;14.63;2.58;;;8.40;99.90;;;;;;5022484;28;20033;-89
2023/01/12 00:09:15;;;;;;;11.73;2.55;;;8.60;99.90;;;;;;5020699;28;20511;-88
2023/01/12 00:11:40;;;;;;;12.95;2.72;;;8.50;99.90;;;;;;5024814;28;20079;-89
2023/01/12 00:14:08;;;;;;;18.00;4.00;;;8.50;99.90;;;;;;5023815;28;20622;-87
2023/01/12 00:16:34;;;;;;;10.95;3.63;;;8.60;99.90;;;;;;5023990;28;20515;-89
2023/01/12 00:19:01;;;;;;;11.57;2.75;;;8.60;99.90;;;;;;5020918;28;20029;-87
2023/01/12 00:21:26;;;;;;;18.85;3.78;;;8.60;99.90;;;;;;5020798;28;20068;-89
2023/01/12 00:23:52;;;;;;;18.42;4.32;;;8.50;99.90;;;;;;5020960;28;20273;-89
2023/01/12 00:26:18;;;;;;;20.00;4.30;;;8.50;99.90;;;;;;5019080;28;20621;-88
2023/01/12 00:28:44;;;;;;;21.98;4.32;;;8.50;99.90;;;;;;5037887;28;20032;-90
2023/01/12 00:31:10;;;;;;;26.23;4.65;;;8.50;99.90;;;;;;5020612;28;20468;-88
2023/01/12 00:33:37;;;;;;;15.43;3.17;;;8.50;99.90;;;;;;5023209;28;20460;-89
2023/01/12 00:36:05;;;;;;;16.45;3.53;;;8.40;99.90;;;;;;5029501;28;20045;-87
2023/01/12 00:38:32;;;;;;;19.85;4.00;;;8.40;99.90;;;;;;5021410;28;20052;-88
2023/01/12 00:41:06;;;;;;;22.85;4.65;;;8.40;99.90;;;;;;5021715;28;20440;-87
2023/01/12 00:46:17;;;;;;;19.92;3.60;;;8.40;99.90;;;;;;5037909;28;20040;-88
2023/01/12 00:48:42;;;;;;;15.57;3.60;;;8.40;99.90;;;;;;5021680;28;20029;-88
2023/01/12 00:51:08;;;;;;;20.90;3.33;;;8.40;99.90;;;;;;5054649;28;20033;-87
2023/01/12 00:53:34;;;;;;;12.13;3.28;;;8.40;99.90;;;;;;5023680;28;20616;-88
2023/01/12 00:56:01;;;;;;;16.75;3.83;;;8.40;99.90;;;;;;5020197;28;20127;-89
2023/01/12 00:58:27;;;;;;;18.40;4.18;;;8.40;99.90;;;;;;5023581;28;20128;-90
2023/01/12 01:00:53;;;;;;;14.85;3.17;;;8.50;99.90;;;;;;5029501;28;20045;-88
2023/01/12 01:03:19;;;;;;;13.65;2.65;;;8.50;99.90;;;;;;5020954;28;20568;-88
2023/01/12 01:05:45;;;;;;;18.73;3.00;;;8.40;99.90;;;;;;5021760;28;20466;-88
2023/01/12 01:08:11;;;;;;;16.83;3.83;;;8.30;99.90;;;;;;5019012;28;20048;-89
2023/01/12 01:10:37;;;;;;;14.27;2.58;;;8.30;99.90;;;;;;5019555;28;20499;-87
2023/01/12 01:13:02;;;;;;;14.30;3.60;;;8.20;99.90;;;;;;5024218;28;20079;-88
2023/01/12 01:15:28;;;;;;;13.18;2.78;;;8.10;99.90;;;;;;5026428;28;20044;-89
2023/01/12 01:17:54;;;;;;;10.50;2.60;;;8.00;99.90;;;;;;5021752;28;20045;-87
2023/01/12 01:20:20;;;;;;;17.38;3.10;;;8.00;99.90;;;;;;5023397;28;20037;-88
2023/01/12 01:22:46;;;;;;;15.75;3.05;;;8.00;99.90;;;;;;5019319;28;20045;-88
2023/01/12 01:25:12;;;;;;;13.90;3.63;;;8.00;99.90;;;;;;5019688;28;20060;-88
2023/01/12 01:27:37;;;;;;;17.23;3.05;;;8.00;99.90;;;;;;5036917;28;20259;-88
2023/01/12 01:30:04;;;;;;;19.27;3.92;;;8.10;99.90;;;;;;5018766;28;20094;-88
2023/01/12 01:32:29;;;;;;;18.73;4.35;;;8.20;99.90;;;;;;5023691;28;20037;-87
2023/01/12 01:34:55;;;;;;;19.05;4.20;;;8.20;99.90;;;;;;5024222;28;20038;-86
2023/01/12 01:37:21;;;;;;;23.38;4.65;;;8.30;99.90;;;;;;5023911;28;20041;-87
2023/01/12 01:39:46;;;;;;;22.15;4.05;;;8.30;99.90;;;;;;5018390;28;20037;-87
2023/01/12 01:42:26;;;;;;;13.57;3.28;;;8.40;99.90;;;;;;5020485;28;20037;-87
2023/01/12 01:44:54;;;;;;;23.88;4.03;;;8.40;99.90;;;;;;5022383;28;20041;-89
2023/01/12 01:47:33;;;;;;;19.75;4.22;;;8.40;99.90;;;;;;5015672;28;20037;-88
2023/01/12 01:50:03;;;;;;;16.90;3.85;;;8.40;99.90;;;;;;5016222;28;20049;-88
2023/01/12 01:52:44;;;;;;;28.10;4.50;;;8.40;99.90;;;;;;5018813;28;20043;-89
2023/01/12 01:55:25;;;;;;;22.92;4.18;;;8.40;99.90;;;;;;5037653;28;20431;-88
2023/01/12 01:57:56;;;;;;;17.20;3.28;;;8.40;99.90;;;;;;5022976;28;20124;-88
2023/01/12 02:00:25;;;;;;;18.60;3.38;;;8.50;99.90;;;;;;5025629;28;20056;-90
2023/01/12 02:02:52;;;;;;;22.40;4.00;;;8.50;99.90;;;;;;5023460;28;20041;-88
2023/01/12 02:05:22;;;;;;;18.63;4.07;;;8.50;99.90;;;;;;5023266;28;20095;-89
2023/01/12 02:07:49;;;;;;;17.58;3.42;;;8.50;99.90;;;;;;5023999;28;20133;-89
2023/01/12 02:10:15;;;;;;;19.83;3.45;;;8.50;99.90;;;;;;5022313;28;20068;-89
2023/01/12 02:18:44;;;;;;;20.98;3.92;;;8.40;99.90;;;;;;5039670;28;20328;-88
2023/01/12 02:21:32;;;;;;;27.85;4.30;;;8.40;99.90;;;;;;5026909;28;20041;-87
2023/01/12 02:24:29;;;;;;;24.73;5.13;;;8.50;99.90;;;;;;5021265;28;20069;-88
2023/01/12 02:27:20;;;;;;;18.63;3.75;;;8.50;99.90;;;;;;5024324;28;20132;-88
2023/01/12 02:29:51;;;;;;;22.15;4.43;;;8.60;99.90;;;;;;5040207;28;20504;-89
2023/01/12 02:33:02;;;;;;;28.85;4.68;;;8.60;99.90;;;;;;5025768;28;20029;-88
2023/01/12 02:35:57;;;;;;;28.58;4.20;;;8.60;99.90;;;;;;4996087;28;20041;-89
2023/01/12 02:38:44;;;;;;;22.70;4.30;;;8.60;99.90;;;;;;5058370;28;20459;-89
2023/01/12 02:44:39;;;;;;;23.52;4.20;;;8.50;99.90;;;;;;5034183;28;20461;-89
2023/01/12 02:47:10;;;;;;;16.40;4.30;;;8.50;99.90;;;;;;5026407;28;20045;-90
2023/01/12 02:49:43;;;;;;;19.58;4.72;;;8.60;99.90;;;;;;5025181;28;20037;-88
2023/01/12 02:52:13;;;;;;;18.25;4.47;;;8.60;99.90;;;;;;5023941;28;20123;-88
2023/01/12 02:54:40;;;;;;;19.73;4.28;;;8.50;99.90;;;;;;5020627;28;20215;-89
2023/01/12 02:57:08;;;;;;;19.70;3.72;;;8.60;99.90;;;;;;5040237;28;20033;-89
2023/01/12 02:59:40;;;;;;;20.30;4.13;;;8.50;99.90;;;;;;5025659;28;20194;-89
2023/01/12 03:02:18;;;;;;;23.73;4.18;;;8.60;99.90;;;;;;5023112;28;20052;-88
2023/01/12 03:04:47;;;;;;;22.58;4.10;;;8.50;99.90;;;;;;5024065;28;20048;-89
2023/01/12 03:07:13;;;;;;;20.38;4.20;;;8.60;99.90;;;;;;5039505;28;20287;-89
2023/01/12 03:09:50;;;;;;;20.50;4.47;;;8.60;99.90;;;;;;5024993;28;20048;-89
2023/01/12 03:12:29;;;;;;;23.77;4.47;;;8.70;99.90;;;;;;5024249;28;20037;-88
2023/01/12 03:14:58;;;;;;;21.15;4.75;;;8.70;99.90;;;;;;5021543;28;20064;-88
2023/01/12 03:17:38;;;;;;;18.83;4.43;;;8.70;99.90;;;;;;5021480;28;20041;-89
2023/01/12 03:20:20;;;;;;;20.30;4.90;;;8.70;99.90;;;;;;5022831;28;20048;-88
2023/01/12 03:22:50;;;;;;;17.75;4.28;;;8.70;99.90;;;;;;5038597;28;20051;-89
2023/01/12 03:25:17;;;;;;;24.50;4.47;;;8.70;99.90;;;;;;5022836;28;20080;-87
2023/01/12 03:27:50;;;;;;;22.05;4.50;;;8.70;99.90;;;;;;5026558;28;20052;-90
2023/01/12 03:30:30;;;;;;;26.27;5.22;;;8.70;99.90;;;;;;5026096;28;20444;-89
2023/01/12 03:32:56;;;;;;;24.48;5.20;;;8.70;99.90;;;;;;5020176;28;20051;-88
2023/01/12 03:35:26;;;;;;;23.27;5.00;;;8.80;99.90;;;;;;5021794;28;20041;-89
2023/01/12 03:38:10;;;;;;;20.77;4.57;;;8.80;99.90;;;;;;5021045;28;20160;-88
2023/01/12 03:40:48;;;;;;;22.45;5.35;;;8.80;99.90;;;;;;5020356;28;20036;-89
2023/01/12 03:43:42;;;;;;;17.25;4.00;;;8.90;99.90;;;;;;5019393;28;20118;-87
2023/01/12 03:46:16;;;;;;;18.48;4.82;;;8.90;99.90;;;;;;5019271;28;20132;-89
2023/01/12 03:48:56;;;;;;;25.47;4.83;;;8.90;99.90;;;;;;5025958;28;20040;-89
2023/01/12 03:51:31;;;;;;;18.33;4.07;;;8.90;99.90;;;;;;5025715;28;20128;-88
2023/01/12 03:53:57;;;;;;;19.52;4.45;;;9.00;99.90;;;;;;5017835;28;20119;-88
2023/01/12 03:56:26;;;;;;;14.95;3.35;;;9.00;99.90;;;;;;5037083;28;20040;-90
2023/01/12 03:58:52;;;;;;;13.98;3.63;;;9.00;99.90;;;;;;5018957;28;20438;-88
2023/01/12 04:01:18;;;;;;;18.95;4.10;;;9.00;99.90;;;;;;5019674;28;20068;-89
2023/01/12 04:03:44;;;;;;;14.40;3.15;;;9.00;99.90;;;;;;5021261;28;20045;-89
2023/01/12 04:06:10;;;;;;;16.52;3.60;;;9.00;99.90;;;;;;5023105;28;20317;-89
2023/01/12 04:08:35;;;;;;;18.65;3.50;;;8.90;99.90;;;;;;5022375;28;20037;-89
2023/01/12 04:12:08;;;;;;;18.63;3.70;;;8.90;99.90;;;;;;5032650;28;20118;-89
2023/01/12 04:13:47;;;;;;;16.30;3.53;;;8.90;99.90;;;;;;5035060;28;20049;-88
2023/01/12 04:16:12;;;;;;;13.35;3.20;;;8.90;99.90;;;;;;5023051;28;20408;-88
2023/01/12 04:18:38;;;;;;;17.50;3.63;;;8.90;99.90;;;;;;5026976;28;20045;-88
2023/01/12 04:21:04;;;;;;;12.80;3.42;;;8.90;99.90;;;;;;5024421;28;20037;-89
2023/01/12 04:23:29;;;;;;;12.40;3.22;;;8.90;99.90;;;;;;5020903;28;20516;-88
2023/01/12 04:25:55;;;;;;;15.20;4.20;;;8.90;99.90;;;;;;5021715;28;20468;-88
2023/01/12 04:28:21;;;;;;;12.50;3.28;;;8.90;99.90;;;;;;5023050;28;20029;-88
2023/01/12 04:30:49;;;;;;;12.60;3.35;;;8.90;99.90;;;;;;5022702;28;20047;-90
2023/01/12 04:33:15;;;;;;;11.35;3.33;;;8.90;99.90;;;;;;5021980;28;20051;-89
2023/01/12 04:35:40;;;;;;;10.85;3.03;;;8.90;99.90;;;;;;5024529;28;20416;-89
2023/01/12 04:38:07;;;;;;;8.25;2.38;;;9.00;99.90;;;;;;5023366;28;20033;-89
2023/01/12 04:40:33;;;;;;;12.82;2.78;;;8.90;99.90;;;;;;5043623;28;20037;-89
2023/01/12 04:43:06;;;;;;;11.23;2.90;;;9.00;99.90;;;;;;5029565;28;20044;-89
2023/01/12 04:45:38;;;;;;;12.40;2.63;;;8.90;99.90;;;;;;5024401;28;20033;-89
2023/01/12 04:48:11;;;;;;;9.50;3.55;;;9.00;99.90;;;;;;5041955;28;20057;-88
2023/01/12 04:50:38;;;;;;;8.38;2.60;;;8.90;99.90;;;;;;5026562;28;20036;-88
2023/01/12 04:53:05;;;;;;;10.55;2.63;;;8.90;99.90;;;;;;5020869;28;20685;-89
2023/01/12 04:55:34;;;;;;;8.07;2.40;;;8.90;99.90;;;;;;5018143;28;20103;-89
2023/01/12 04:58:02;;;;;;;8.98;2.25;;;8.80;99.90;;;;;;5038559;28;20379;-88
2023/01/12 05:00:28;;;;;;;7.82;2.30;;;8.80;99.90;;;;;;5022440;28;20344;-89
2023/01/12 05:03:01;;;;;;;10.85;2.78;;;8.80;99.90;;;;;;5039103;28;20263;-89
2023/01/12 05:05:31;;;;;;;5.75;2.38;;;8.80;99.90;;;;;;5021734;28;20071;-89
2023/01/12 05:10:55;;;;;;;6.53;1.90;;;8.80;99.90;;;;;;5039431;28;20099;-88
2023/01/12 05:13:23;;;;;;;9.50;2.40;;;8.70;99.90;;;;;;5039557;28;20079;-88
2023/01/12 05:15:48;;;;;;;8.75;2.20;;;8.70;99.90;;;;;;5022337;28;20075;-88
2023/01/12 05:18:17;;;;;;;8.13;2.40;;;8.70;99.90;;;;;;5023616;28;20171;-90
2023/01/12 05:20:43;;;;;;;6.85;2.00;;;8.70;99.90;;;;;;5040015;28;20036;-89
2023/01/12 05:23:09;;;;;;;4.55;2.20;;;8.70;99.90;;;;;;5019767;28;20310;-90
2023/01/12 05:25:34;;;;;;;6.38;1.88;;;8.60;99.90;;;;;;5021432;28;20052;-88
2023/01/12 05:28:00;;;;;;;7.85;2.08;;;8.70;99.90;;;;;;5022863;28;20078;-88
2023/01/12 05:30:27;;;;;;;4.45;1.70;;;8.70;99.90;;;;;;5032429;28;20040;-89
2023/01/12 05:32:52;;;;;;;5.45;1.95;;;8.70;99.90;;;;;;5020807;28;20049;-88
2023/01/12 05:35:21;;;;;;;6.03;2.20;;;8.60;99.90;;;;;;5017839;28;20045;-89
2023/01/12 05:37:47;;;;;;;7.07;2.65;;;8.60;99.90;;;;;;5020073;28;20511;-89
2023/01/12 05:40:14;;;;;;;7.60;2.38;;;8.60;99.90;;;;;;5032632;28;20080;-90
2023/01/12 05:45:24;;;;;;;4.25;1.95;;;8.60;99.90;;;;;;5038977;28;20430;-89
2023/01/12 05:48:00;;;;;;;4.22;1.83;;;8.60;99.90;;;;;;5038553;28;20045;-88
2023/01/12 05:50:26;;;;;;;7.20;2.28;;;8.60;99.90;;;;;;5025125;28;20048;-89
2023/01/12 05:52:52;;;;;;;5.75;1.80;;;8.60;99.90;;;;;;5033763;28;20045;-89
2023/01/12 05:55:21;;;;;;;3.10;1.85;;;8.60;99.90;;;;;;5018847;28;20359;-88
2023/01/12 05:57:46;;;;;;;5.85;1.85;;;8.60;99.90;;;;;;5015976;28;20384;-89
2023/01/12 06:00:12;;;;;;;5.50;1.70;;;8.60;99.90;;;;;;5017827;28;20037;-89
2023/01/12 06:02:41;;;;;;;4.82;1.85;;;8.60;99.90;;;;;;5044781;28;20068;-89
2023/01/12 06:05:08;;;;;;;4.18;1.77;;;8.60;99.90;;;;;;5019273;28;20140;-89
2023/01/12 06:07:37;;;;;;;2.60;1.55;;;8.70;99.90;;;;;;5021837;28;20492;-88
2023/01/12 06:10:03;;;;;;;3.63;1.35;;;8.70;99.90;;;;;;5037003;28;20052;-89
2023/01/12 06:15:13;;;;;;;4.63;1.50;;;8.70;99.90;;;;;;5035158;28;20038;-89
2023/01/12 06:17:39;;;;;;;3.17;1.60;;;8.70;99.90;;;;;;5019917;28;20503;-90
2023/01/12 06:20:06;;;;;;;3.83;1.80;;;8.80;99.90;;;;;;5032664;28;20032;-88
2023/01/12 06:22:31;;;;;;;3.35;1.80;;;8.80;99.90;;;;;;5018434;28;20510;-87
2023/01/12 06:24:57;;;;;;;5.80;2.00;;;8.80;99.90;;;;;;5019283;28;20049;-89
2023/01/12 06:27:23;;;;;;;5.50;1.50;;;8.90;99.90;;;;;;5025129;28;20636;-88
2023/01/12 06:29:48;;;;;;;3.85;1.40;;;8.90;99.90;;;;;;5023469;28;20052;-88
2023/01/12 06:32:14;;;;;;;3.30;1.60;;;8.90;99.90;;;;;;5018361;28;20033;-89
2023/01/12 06:34:39;;;;;;;3.47;1.40;;;8.90;99.90;;;;;;5020704;28;20541;-88
2023/01/12 06:37:07;;;;;;;1.55;0.98;;;9.00;99.90;;;;;;5021833;28;20476;-88
2023/01/12 06:39:33;;;;;;;2.65;1.10;;;9.00;99.90;;;;;;5034401;28;20040;-89
2023/01/12 06:44:44;;;;;;;1.67;0.80;;;9.10;99.90;;;;;;5043073;28;20057;-89
2023/01/12 06:47:09;;;;;;;1.17;0.88;;;9.10;99.90;;;;;;5023174;28;20052;-89
2023/01/12 06:49:35;;;;;;;1.80;0.80;;;9.20;99.90;;;;;;5022742;28;20064;-89
2023/01/12 06:52:01;;;;;;;1.77;0.90;;;9.20;99.90;;;;;;5025351;28;20041;-88
2023/01/12 06:54:26;;;;;;;2.35;1.17;;;9.30;99.90;;;;;;5021300;28;20072;-90
2023/01/12 06:56:54;;;;;;;2.67;0.90;;;9.30;99.90;;;;;;5035411;28;20045;-88
2023/01/12 06:59:23;;;;;;;2.13;0.95;;;9.30;99.90;;;;;;5024089;28;20045;-89
2023/01/12 07:01:48;;;;;;;1.58;0.80;;;9.40;99.90;;;;;;5025095;28;20111;-89
2023/01/12 07:04:17;;;;;;;2.03;0.90;;;9.40;99.90;;;;;;5027067;28;20049;-88
2023/01/12 07:06:42;;;;;;;1.40;1.00;;;9.50;99.90;;;;;;5038827;28;20053;-88
2023/01/12 07:09:08;;;;;;;2.55;0.95;;;9.60;99.90;;;;;;5023859;28;20048;-89
2023/01/12 07:11:33;;;;;;;2.25;1.10;;;9.60;99.90;;;;;;5023117;28;20230;-89
2023/01/12 07:13:59;;;;;;;1.88;0.90;;;9.60;99.90;;;;;;5023117;28;20574;-89
2023/01/12 07:16:25;;;;;;;2.45;0.88;;;9.70;99.90;;;;;;5036837;28;20064;-88
2023/01/12 07:18:53;;;;;;;0.88;0.70;;;9.60;99.90;;;;;;5027080;28;20041;-90
2023/01/12 07:21:20;;;;;;;1.80;1.00;;;9.80;99.90;;;;;;5020426;28;20045;-90
2023/01/12 07:23:47;;;;;;;3.00;0.88;;;9.80;99.90;;;;;;5020233;28;20060;-88
2023/01/12 07:26:13;;;;;;;1.98;1.05;;;9.80;99.90;;;;;;5020875;28;20048;-90
2023/01/12 07:28:41;;;;;;;3.92;1.30;;;9.90;99.90;;;;;;5022576;28;20037;-88
2023/01/12 07:31:08;;;;;;;5.40;1.40;;;9.90;99.90;;;;;;5026741;28;20099;-89
2023/01/12 07:33:35;;;;;;;4.25;1.60;;;9.90;99.90;;;;;;5021602;28;20037;-90
2023/01/12 07:36:01;;;;;;;3.75;1.83;;;10.00;99.90;;;;;;5018051;28;20048;-89
2023/01/12 07:38:31;;;;;;;3.92;1.55;;;10.00;99.90;;;;;;5021849;28;20415;-88
2023/01/12 07:41:03;;;;;;;3.15;1.58;;;10.00;99.90;;;;;;5019826;28;20131;-88
2023/01/12 07:43:32;;;;;;;7.03;1.90;;;10.10;99.90;;;;;;5054842;28;20041;-88
2023/01/12 07:46:01;;;;;;;6.75;1.70;;;10.10;99.90;;;;;;5039084;28;20076;-89
2023/01/12 07:48:26;;;;;;;6.57;2.25;;;10.20;99.90;;;;;;5022478;28;20440;-88
2023/01/12 07:50:57;;;;;;;8.70;2.33;;;10.20;99.90;;;;;;5020039;28;20518;-88
2023/01/12 07:53:29;;;;;;;6.95;2.33;;;10.30;99.90;;;;;;5019080;28;20053;-89
2023/01/12 07:55:57;;;;;;;15.70;2.35;;;10.30;99.90;;;;;;5024397;28;20297;-89
2023/01/12 07:58:23;;;;;;;7.68;2.35;;;10.40;99.90;;;;;;5020973;28;20040;-90
2023/01/12 08:00:49;;;;;;;13.32;2.75;;;10.50;99.90;;;;;;5035584;28;20472;-89
2023/01/12 08:03:17;;;;;;;10.15;2.42;;;10.50;99.90;;;;;;5023592;28;20040;-90
2023/01/12 08:05:46;;;;;;;11.93;2.70;;;10.50;99.90;;;;;;5020129;28;20527;-90
2023/01/12 08:08:11;;;;;;;8.68;2.40;;;10.50;99.90;;;;;;5022042;28;20277;-89
2023/01/12 08:10:37;;;;;;;14.50;3.15;;;10.60;99.90;;;;;;5040837;28;20487;-89
2023/01/12 08:13:03;;;;;;;15.65;2.95;;;10.70;99.90;;;;;;5037254;28;20032;-89
2023/01/12 08:15:37;;;;;;;25.40;4.53;;;10.70;99.90;;;;;;5024970;28;20078;-89
2023/01/12 08:18:14;;;;;;;16.23;3.83;;;10.70;99.90;;;;;;5021977;28;20735;-91
2023/01/12 08:20:41;;;;;;;19.38;3.53;;;10.80;99.90;;;;;;5021596;28;20697;-90
2023/01/12 08:23:14;;;;;;;25.52;4.53;;;10.80;99.90;;;;;;5038719;28;20096;-89
2023/01/12 08:25:43;;;;;;;21.67;4.43;;;10.80;99.90;;;;;;5037501;28;20053;-90
2023/01/12 08:28:16;;;;;;;24.13;4.93;;;10.80;99.90;;;;;;5036652;28;20041;-89
2023/01/12 08:30:45;;;;;;;17.85;3.60;;;10.90;99.90;;;;;;5021339;28;20041;-90
2023/01/12 08:33:11;;;;;;;25.70;4.30;;;10.90;99.90;;;;;;5019617;28;20044;-89
2023/01/12 08:35:37;;;;;;;21.75;5.13;;;11.00;99.90;;;;;;5023205;28;20037;-91
2023/01/12 08:38:02;;;;;;;21.30;3.85;;;11.00;99.90;;;;;;5024793;28;20319;-90
2023/01/12 08:41:31;;;;;;;22.17;4.20;;;10.90;99.90;;;;;;5019505;28;20076;-88
2023/01/12 08:44:00;;;;;;;17.83;3.80;;;11.00;99.90;;;;;;5036673;28;20051;-88
2023/01/12 08:46:06;;;;;;;25.88;4.15;;;11.00;99.90;;;;;;5033815;28;20045;-89
2023/01/12 08:48:34;;;;;;;14.55;3.83;;;11.10;99.90;;;;;;5019054;28;20045;-89
2023/01/12 08:50:59;;;;;;;19.35;3.95;;;11.10;99.90;;;;;;5020359;28;20036;-89
2023/01/12 08:53:25;;;;;;;11.35;3.17;;;11.10;99.90;;;;;;5018542;28;20044;-90
2023/01/12 08:55:54;;;;;;;20.67;3.67;;;11.10;99.90;;;;;;5021995;28;20477;-90
2023/01/12 08:58:20;;;;;;;21.08;4.15;;;11.00;99.90;;;;;;5017612;28;20041;-90
2023/01/12 09:00:45;;;;;;;18.92;3.70;;;11.10;99.90;;;;;;5022478;28;20440;-91
2023/01/12 09:03:11;;;;;;;15.73;3.35;;;11.10;99.90;;;;;;5037117;28;20037;-91
2023/01/12 09:05:36;;;;;;;13.23;3.72;;;11.10;99.90;;;;;;5018286;28;20060;-90
2023/01/12 09:08:02;;;;;;;21.38;4.80;;;11.10;99.90;;;;;;5020482;28;20067;-89
2023/01/12 09:10:28;;;;;;;20.17;3.92;;;11.10;99.90;;;;;;5018396;28;20168;-87
2023/01/12 09:12:57;;;;;;;21.40;4.30;;;11.10;99.90;;;;;;5022989;28;20082;-89
2023/01/12 09:15:22;;;;;;;16.88;3.42;;;11.20;99.90;;;;;;5024747;28;20649;-89
2023/01/12 09:17:54;;;;;;;13.60;3.40;;;11.10;99.90;;;;;;5024416;28;20087;-88
2023/01/12 09:20:20;;;;;;;20.20;4.20;;;11.20;99.90;;;;;;5024752;28;20530;-88
2023/01/12 09:22:49;;;;;;;22.80;3.88;;;11.20;99.90;;;;;;5026765;28;20041;-89
2023/01/12 09:25:18;;;;;;;17.40;3.72;;;11.20;99.90;;;;;;5040453;28;20544;-89
2023/01/12 09:27:44;;;;;;;19.00;4.38;;;11.20;99.90;;;;;;5025217;28;20124;-90
2023/01/12 09:30:10;;;;;;;17.17;3.60;;;11.30;99.90;;;;;;5026145;28;20399;-89
2023/01/12 09:32:36;;;;;;;17.02;4.53;;;11.20;99.90;;;;;;5024766;28;20041;-89
2023/01/12 09:35:01;;;;;;;18.25;3.63;;;11.20;99.90;;;;;;5022720;28;20041;-88
2023/01/12 09:37:30;;;;;;;21.02;3.70;;;11.30;99.90;;;;;;5022944;28;20041;-90
2023/01/12 09:39:56;;;;;;;13.50;2.92;;;11.30;99.90;;;;;;5041659;28;20051;-90
2023/01/12 09:48:08;;;;;;;15.10;3.05;;;11.30;99.90;;;;;;5041946;28;20128;-88
2023/01/12 09:50:38;;;;;;;17.52;3.30;;;11.40;99.90;;;;;;5024798;28;20055;-89
2023/01/12 09:53:22;;;;;;;13.25;3.70;;;11.40;99.90;;;;;;5022294;28;20174;-89
2023/01/12 09:55:47;;;;;;;22.92;4.03;;;11.40;99.90;;;;;;5035518;28;20116;-89
2023/01/12 09:58:57;;;;;;;18.80;3.33;;;11.50;99.90;;;;;;5023649;28;20549;-89
2023/01/12 10:01:24;;;;;;;17.63;3.60;;;11.50;99.90;;;;;;4961479;28;20042;-89
2023/01/12 10:03:50;;;;;;;14.23;3.15;;;11.60;99.90;;;;;;5015187;28;20053;-89
2023/01/12 10:06:19;;;;;;;20.38;3.38;;;11.50;99.90;;;;;;5024314;28;20037;-88
2023/01/12 10:08:50;;;;;;;15.98;3.25;;;11.50;99.90;;;;;;5036876;28;20044;-90
2023/01/12 10:11:44;;;;;;;16.95;3.47;;;11.50;99.90;;;;;;5039206;28;20187;-89
2023/01/12 10:14:22;;;;;;;17.73;4.50;;;11.50;99.90;;;;;;5021708;28;20466;-89
2023/01/12 10:17:16;;;;;;;18.52;3.42;;;11.60;99.90;;;;;;5026269;28;20039;-89
2023/01/12 10:20:12;;;;;;;18.05;3.65;;;11.60;99.90;;;;;;5027058;28;20568;-90
2023/01/12 10:22:54;;;;;;;13.30;3.33;;;11.60;99.90;;;;;;5026894;28;20045;-90
2023/01/12 10:25:34;;;;;;;16.08;3.50;;;11.60;99.90;;;;;;5022961;28;20052;-88
2023/01/12 10:28:09;;;;;;;14.18;3.13;;;11.70;99.90;;;;;;5028380;28;20502;-90
2023/01/12 10:30:38;;;;;;;13.70;3.42;;;11.70;99.90;;;;;;5028863;28;20068;-90
2023/01/12 10:33:12;;;;;;;13.73;2.70;;;11.70;99.90;;;;;;5027824;28;20037;-89
2023/01/12 10:35:54;;;;;;;15.18;2.53;;;11.70;99.90;;;;;;5042120;28;20049;-89
2023/01/12 10:38:33;;;;;;;19.52;3.92;;;11.70;99.90;;;;;;5027146;28;20048;-90
2023/01/12 10:41:04;;;;;;;10.25;3.20;;;11.70;99.90;;;;;;5031651;28;20037;-89
2023/01/12 10:43:35;;;;;;;15.23;3.20;;;11.60;99.90;;;;;;5025893;28;20041;-89
2023/01/12 10:46:20;;;;;;;13.98;3.00;;;11.60;99.90;;;;;;5038613;28;20032;-89
2023/01/12 10:48:51;;;;;;;16.17;2.73;;;11.60;99.90;;;;;;5040223;28;20500;-90
2023/01/12 10:51:33;;;;;;;10.73;2.15;;;11.60;99.90;;;;;;5045182;28;20326;-89
2023/01/12 10:54:16;;;;;;;15.13;2.80;;;11.70;99.90;;;;;;5023742;28;20040;-89
2023/01/12 10:56:52;;;;;;;15.52;3.15;;;11.70;99.90;;;;;;5039839;28;20041;-90
2023/01/12 10:59:20;;;;;;;13.95;2.97;;;11.70;99.90;;;;;;5025728;28;20040;-89
2023/01/12 11:02:11;;;;;;;16.67;2.78;;;11.70;99.90;;;;;;5023987;28;20036;-90
2023/01/12 11:04:45;;;;;;;19.60;3.92;;;11.70;99.90;;;;;;5025622;28;20265;-89
2023/01/12 11:07:27;;;;;;;13.93;2.30;;;11.70;99.90;;;;;;5039960;28;20048;-89
2023/01/12 11:09:56;;;;;;;15.40;2.70;;;11.70;99.90;;;;;;5025898;28;20121;-89
2023/01/12 11:12:28;;;;;;;18.88;2.97;;;11.70;99.90;;;;;;5025201;28;20667;-89
2023/01/12 11:15:13;;;;;;;16.33;2.90;;;11.70;99.90;;;;;;5057659;28;20107;-90
2023/01/12 11:17:53;;;;;;;;;;;11.80;99.90;;;;;;5026628;28;20063;-89
2023/01/12 11:20:26;;;;;;;17.17;2.83;;;11.90;99.90;;;;;;5040381;28;20304;-90
2023/01/12 11:22:56;;;;;;;10.15;2.95;;;11.90;99.90;;;;;;5024967;28;20051;-90
2023/01/12 11:25:24;;;;;;;14.15;2.85;;;11.90;99.90;;;;;;5038091;28;20052;-89
2023/01/12 11:27:59;;;;;;;13.90;2.80;;;11.90;99.90;;;;;;5025683;28;20047;-89
2023/01/12 11:30:43;;;;;;;20.08;3.35;;;11.90;99.90;;;;;;5024619;28;20045;-90
2023/01/12 11:33:53;;;;;;;11.13;2.95;;;11.90;99.90;;;;;;5023136;28;20053;-89
2023/01/12 11:36:30;;;;;;;16.95;4.07;;;11.90;99.90;;;;;;5022851;28;20537;-88
2023/01/12 11:39:02;;;;;;;10.68;2.72;;;11.90;99.90;;;;;;5019661;28;20043;-90
2023/01/12 11:41:39;;;;;;;19.17;3.13;;;11.90;99.90;;;;;;5034955;28;20123;-88
2023/01/12 11:44:28;;;;;;;13.63;2.95;;;12.00;99.90;;;;;;5024131;28;20052;-89
2023/01/12 11:47:11;;;;;;;16.30;2.90;;;12.00;99.90;;;;;;5040479;28;20064;-89
2023/01/12 11:50:01;;;;;;;12.75;2.80;;;12.10;99.90;;;;;;5021059;28;20119;-89
2023/01/12 11:52:27;;;;;;;20.38;3.00;;;12.10;99.90;;;;;;5022855;28;20376;-90
2023/01/12 11:54:54;;;;;;;15.13;2.95;;;12.20;99.90;;;;;;5025154;28;20884;-90
2023/01/12 11:57:50;;;;;;;13.82;2.72;;;12.10;99.90;;;;;;5019678;28;20060;-90
2023/01/12 12:00:50;;;;;;;14.07;2.92;;;12.20;99.90;;;;;;5024159;28;20057;-90
2023/01/12 12:04:03;;;;;;;15.77;3.28;;;12.10;99.90;;;;;;5054564;28;20420;-89
2023/01/12 12:06:29;;;;;;;13.73;2.63;;;12.10;99.90;;;;;;4994060;28;20045;-88
2023/01/12 12:09:22;;;;;;;9.27;2.67;;;12.10;99.90;;;;;;5024447;28;20052;-89
2023/01/12 12:12:03;;;;;;;12.43;2.60;;;12.20;99.90;;;;;;5040360;28;20047;-89
2023/01/12 12:14:45;;;;;;;16.42;3.35;;;12.10;99.90;;;;;;5034093;28;20428;-89
2023/01/12 12:17:21;;;;;;;14.20;3.17;;;12.00;99.90;;;;;;5024360;28;20051;-89
2023/01/12 12:20:12;;;;;;;12.30;3.33;;;12.00;99.90;;;;;;5039910;28;20045;-87
2023/01/12 12:23:03;;;;;;;12.52;3.17;;;11.90;99.90;;;;;;5020345;28;20408;-88
2023/01/12 12:25:36;;;;;;;13.43;2.80;;;11.90;99.90;;;;;;5033255;28;20048;-89
2023/01/12 12:28:24;;;;;;;14.23;2.95;;;11.90;99.90;;;;;;5023572;28;20090;-90
2023/01/12 12:31:22;;;;;;;10.07;2.90;;;11.90;99.90;;;;;;5035870;28;20592;-89
2023/01/12 12:34:26;;;;;;;10.57;2.90;;;11.80;99.90;;;;;;4988366;28;20422;-88
2023/01/12 12:37:07;;;;;;;11.73;3.33;;;11.90;99.90;;;;;;5021880;28;20277;-88
2023/01/12 12:39:48;;;;;;;11.93;2.80;;;11.90;99.90;;;;;;5021167;28;20069;-87
2023/01/12 12:45:40;;;;;;;11.77;2.80;;;11.80;99.90;;;;;;5036613;28;20045;-88
2023/01/12 12:48:30;;;;;;;14.48;3.00;;;11.80;99.90;;;;;;5023258;28;20044;-88
2023/01/12 12:51:05;;;;;;;16.73;3.53;;;11.80;99.90;;;;;;5022565;28;20071;-90
2023/01/12 12:53:35;;;;;;;;;;;11.80;99.90;;;;;;5035909;28;20293;-89
2023/01/12 12:56:14;;;;;;;10.18;2.72;;;11.80;99.90;;;;;;5020153;28;19921;-87
2023/01/12 12:58:51;;;;;;;11.65;2.60;;;11.80;99.90;;;;;;5023263;28;20047;-89
2023/01/12 13:01:20;;;;;;;13.50;3.10;;;11.80;99.90;;;;;;5021703;28;20110;-88
2023/01/12 13:03:53;;;;;;;16.75;3.22;;;11.80;99.90;;;;;;5020676;28;20068;-88
2023/01/12 13:06:31;;;;;;;14.15;2.67;;;11.80;99.90;;;;;;5025615;28;20779;-88
2023/01/12 13:09:21;;;;;;;14.55;3.40;;;11.70;99.90;;;;;;5021761;28;20037;-88
2023/01/12 13:11:54;;;;;;;14.30;3.00;;;11.80;99.90;;;;;;5018985;28;20045;-89
2023/01/12 13:14:33;;;;;;;15.10;3.75;;;11.80;99.90;;;;;;5020252;28;20381;-89
2023/01/12 13:17:24;;;;;;;9.95;2.28;;;11.70;99.90;;;;;;5018915;28;20597;-88
2023/01/12 13:20:10;;;;;;;15.85;3.00;;;11.70;99.90;;;;;;5019968;28;20134;-89
2023/01/12 13:22:50;;;;;;;12.40;2.80;;;11.80;99.90;;;;;;5025074;28;20053;-88
2023/01/12 13:25:15;;;;;;;16.05;3.05;;;11.70;99.90;;;;;;5018292;28;20357;-88
2023/01/12 13:28:01;;;;;;;15.77;3.40;;;11.80;99.90;;;;;;5016047;28;20059;-88
2023/01/12 13:30:30;;;;;;;17.20;4.05;;;11.80;99.90;;;;;;5019100;28;20041;-90
2023/01/12 13:33:14;;;;;;;18.40;3.90;;;11.80;99.90;;;;;;5021194;28;20406;-88
2023/01/12 13:35:43;;;;;;;21.20;3.65;;;11.80;99.90;;;;;;5016778;28;20037;-88
2023/01/12 13:38:38;;;;;;;19.95;3.67;;;11.80;99.90;;;;;;5014717;28;20099;-88
2023/01/12 13:41:12;;;;;;;14.57;3.47;;;11.70;99.90;;;;;;5016628;28;20042;-89
2023/01/12 13:43:50;;;;;;;21.05;3.83;;;11.70;99.90;;;;;;5031786;28;20068;-88